sensor_id;sensor_type;location;lat;lon;timestamp;temperature;humidity
81800;DHT22;71195;52.528;5.704;2023-07-08T00:01:20;21.20;53.90
81800;DHT22;71195;52.528;5.704;2023-07-08T00:03:52;21.20;54.00
81800;DHT22;71195;52.528;5.704;2023-07-08T00:06:25;21.10;54.00
81800;DHT22;71195;52.528;5.704;2023-07-08T00:08:54;21.10;54.00
81800;DHT22;71195;52.528;5.704;2023-07-08T00:11:23;21.10;54.10
81800;DHT22;71195;52.528;5.704;2023-07-08T00:13:52;21.10;54.20
81800;DHT22;71195;52.528;5.704;2023-07-08T00:16:24;21.10;54.20
81800;DHT22;71195;52.528;5.704;2023-07-08T00:18:55;21.10;54.20
81800;DHT22;71195;52.528;5.704;2023-07-08T00:21:25;21.10;54.30
81800;DHT22;71195;52.528;5.704;2023-07-08T00:23:55;21.00;54.30
81800;DHT22;71195;52.528;5.704;2023-07-08T00:26:26;21.00;54.40
81800;DHT22;71195;52.528;5.704;2023-07-08T00:28:58;21.00;54.40
81800;DHT22;71195;52.528;5.704;2023-07-08T00:31:28;21.00;54.50
81800;DHT22;71195;52.528;5.704;2023-07-08T00:34:00;20.90;54.60
81800;DHT22;71195;52.528;5.704;2023-07-08T00:36:30;20.90;54.60
81800;DHT22;71195;52.528;5.704;2023-07-08T00:39:00;20.80;54.60
81800;DHT22;71195;52.528;5.704;2023-07-08T00:41:32;20.80;54.70
81800;DHT22;71195;52.528;5.704;2023-07-08T00:44:03;20.80;54.70
81800;DHT22;71195;52.528;5.704;2023-07-08T00:46:37;20.80;54.80
81800;DHT22;71195;52.528;5.704;2023-07-08T00:49:25;20.80;54.80
81800;DHT22;71195;52.528;5.704;2023-07-08T00:51:55;20.70;55.00
81800;DHT22;71195;52.528;5.704;2023-07-08T00:54:24;20.70;54.90
81800;DHT22;71195;52.528;5.704;2023-07-08T00:56:56;20.60;55.00
81800;DHT22;71195;52.528;5.704;2023-07-08T00:59:28;20.60;55.10
81800;DHT22;71195;52.528;5.704;2023-07-08T01:02:00;20.60;55.10
81800;DHT22;71195;52.528;5.704;2023-07-08T01:04:37;20.60;55.10
81800;DHT22;71195;52.528;5.704;2023-07-08T01:07:10;20.50;55.20
81800;DHT22;71195;52.528;5.704;2023-07-08T01:09:52;20.50;55.10
81800;DHT22;71195;52.528;5.704;2023-07-08T01:12:27;20.50;55.20
81800;DHT22;71195;52.528;5.704;2023-07-08T01:14:59;20.50;55.30
81800;DHT22;71195;52.528;5.704;2023-07-08T01:17:30;20.50;55.20
81800;DHT22;71195;52.528;5.704;2023-07-08T01:20:06;20.50;55.30
81800;DHT22;71195;52.528;5.704;2023-07-08T01:22:42;20.50;55.40
81800;DHT22;71195;52.528;5.704;2023-07-08T01:25:13;20.40;55.40
81800;DHT22;71195;52.528;5.704;2023-07-08T01:27:45;20.40;55.30
81800;DHT22;71195;52.528;5.704;2023-07-08T01:30:16;20.40;55.40
81800;DHT22;71195;52.528;5.704;2023-07-08T01:32:49;20.30;55.40
81800;DHT22;71195;52.528;5.704;2023-07-08T01:35:19;20.30;55.50
81800;DHT22;71195;52.528;5.704;2023-07-08T01:37:54;20.30;55.50
81800;DHT22;71195;52.528;5.704;2023-07-08T01:40:27;20.30;55.60
81800;DHT22;71195;52.528;5.704;2023-07-08T01:42:57;20.30;55.60
81800;DHT22;71195;52.528;5.704;2023-07-08T01:45:29;20.20;55.70
81800;DHT22;71195;52.528;5.704;2023-07-08T01:48:03;20.20;55.80
81800;DHT22;71195;52.528;5.704;2023-07-08T01:50:36;20.10;55.80
81800;DHT22;71195;52.528;5.704;2023-07-08T01:53:13;20.10;55.80
81800;DHT22;71195;52.528;5.704;2023-07-08T01:55:44;20.10;55.80
81800;DHT22;71195;52.528;5.704;2023-07-08T01:58:13;20.10;55.80
81800;DHT22;71195;52.528;5.704;2023-07-08T02:00:42;20.10;55.80
81800;DHT22;71195;52.528;5.704;2023-07-08T02:03:14;20.00;55.90
81800;DHT22;71195;52.528;5.704;2023-07-08T02:05:43;20.00;55.80
81800;DHT22;71195;52.528;5.704;2023-07-08T02:08:15;20.00;55.80
81800;DHT22;71195;52.528;5.704;2023-07-08T02:10:48;20.00;55.90
81800;DHT22;71195;52.528;5.704;2023-07-08T02:13:17;19.90;55.90
81800;DHT22;71195;52.528;5.704;2023-07-08T02:15:48;19.90;55.90
81800;DHT22;71195;52.528;5.704;2023-07-08T02:18:18;19.90;56.00
81800;DHT22;71195;52.528;5.704;2023-07-08T02:20:49;19.80;56.00
81800;DHT22;71195;52.528;5.704;2023-07-08T02:23:22;19.70;56.10
81800;DHT22;71195;52.528;5.704;2023-07-08T02:25:51;19.70;56.20
81800;DHT22;71195;52.528;5.704;2023-07-08T02:28:21;19.70;56.20
81800;DHT22;71195;52.528;5.704;2023-07-08T02:30:50;19.70;56.20
81800;DHT22;71195;52.528;5.704;2023-07-08T02:33:19;19.70;56.20
81800;DHT22;71195;52.528;5.704;2023-07-08T02:35:53;19.70;56.20
81800;DHT22;71195;52.528;5.704;2023-07-08T02:38:25;19.60;56.30
81800;DHT22;71195;52.528;5.704;2023-07-08T02:40:55;19.60;56.30
81800;DHT22;71195;52.528;5.704;2023-07-08T02:43:24;19.50;56.40
81800;DHT22;71195;52.528;5.704;2023-07-08T02:45:53;19.50;56.40
81800;DHT22;71195;52.528;5.704;2023-07-08T02:48:22;19.50;56.50
81800;DHT22;71195;52.528;5.704;2023-07-08T02:50:58;19.50;56.50
81800;DHT22;71195;52.528;5.704;2023-07-08T02:53:30;19.40;56.60
81800;DHT22;71195;52.528;5.704;2023-07-08T02:55:59;19.40;56.60
81800;DHT22;71195;52.528;5.704;2023-07-08T02:58:28;19.40;56.50
81800;DHT22;71195;52.528;5.704;2023-07-08T03:00:58;19.40;56.50
81800;DHT22;71195;52.528;5.704;2023-07-08T03:03:28;19.30;56.50
81800;DHT22;71195;52.528;5.704;2023-07-08T03:05:58;19.30;56.50
81800;DHT22;71195;52.528;5.704;2023-07-08T03:08:31;19.30;56.60
81800;DHT22;71195;52.528;5.704;2023-07-08T03:11:03;19.30;56.60
81800;DHT22;71195;52.528;5.704;2023-07-08T03:13:33;19.30;56.70
81800;DHT22;71195;52.528;5.704;2023-07-08T03:16:04;19.20;56.70
81800;DHT22;71195;52.528;5.704;2023-07-08T03:18:39;19.20;56.70
81800;DHT22;71195;52.528;5.704;2023-07-08T03:21:15;19.20;56.80
81800;DHT22;71195;52.528;5.704;2023-07-08T03:23:47;19.20;56.80
81800;DHT22;71195;52.528;5.704;2023-07-08T03:26:24;19.20;56.90
81800;DHT22;71195;52.528;5.704;2023-07-08T03:28:55;19.10;56.90
81800;DHT22;71195;52.528;5.704;2023-07-08T03:31:25;19.10;56.90
81800;DHT22;71195;52.528;5.704;2023-07-08T03:33:54;19.10;57.00
81800;DHT22;71195;52.528;5.704;2023-07-08T03:36:24;19.00;56.90
81800;DHT22;71195;52.528;5.704;2023-07-08T03:38:57;19.00;57.00
81800;DHT22;71195;52.528;5.704;2023-07-08T03:41:26;19.00;57.10
81800;DHT22;71195;52.528;5.704;2023-07-08T03:43:55;19.00;57.00
81800;DHT22;71195;52.528;5.704;2023-07-08T03:46:26;19.00;57.20
81800;DHT22;71195;52.528;5.704;2023-07-08T03:48:55;19.00;57.10
81800;DHT22;71195;52.528;5.704;2023-07-08T03:51:27;18.90;57.20
81800;DHT22;71195;52.528;5.704;2023-07-08T03:53:58;18.90;57.20
81800;DHT22;71195;52.528;5.704;2023-07-08T03:56:32;18.90;57.10
81800;DHT22;71195;52.528;5.704;2023-07-08T03:59:02;18.80;57.10
81800;DHT22;71195;52.528;5.704;2023-07-08T04:01:32;18.80;57.20
81800;DHT22;71195;52.528;5.704;2023-07-08T04:04:02;18.80;57.20
81800;DHT22;71195;52.528;5.704;2023-07-08T04:06:34;18.80;57.30
81800;DHT22;71195;52.528;5.704;2023-07-08T04:09:06;18.80;57.30
81800;DHT22;71195;52.528;5.704;2023-07-08T04:11:35;18.80;57.30
81800;DHT22;71195;52.528;5.704;2023-07-08T04:14:05;18.80;57.40
81800;DHT22;71195;52.528;5.704;2023-07-08T04:16:44;18.80;57.50
81800;DHT22;71195;52.528;5.704;2023-07-08T04:19:15;18.80;57.50
81800;DHT22;71195;52.528;5.704;2023-07-08T04:21:45;18.80;57.50
81800;DHT22;71195;52.528;5.704;2023-07-08T04:24:17;18.70;57.50
81800;DHT22;71195;52.528;5.704;2023-07-08T04:26:48;18.80;57.60
81800;DHT22;71195;52.528;5.704;2023-07-08T04:29:19;18.80;57.60
81800;DHT22;71195;52.528;5.704;2023-07-08T04:31:49;18.80;57.60
81800;DHT22;71195;52.528;5.704;2023-07-08T04:34:18;18.80;57.60
81800;DHT22;71195;52.528;5.704;2023-07-08T04:36:48;18.80;57.70
81800;DHT22;71195;52.528;5.704;2023-07-08T04:39:19;18.80;57.70
81800;DHT22;71195;52.528;5.704;2023-07-08T04:41:49;18.80;57.70
81800;DHT22;71195;52.528;5.704;2023-07-08T04:44:18;18.80;57.70
81800;DHT22;71195;52.528;5.704;2023-07-08T04:46:49;18.80;57.80
81800;DHT22;71195;52.528;5.704;2023-07-08T04:49:20;18.80;57.80
81800;DHT22;71195;52.528;5.704;2023-07-08T04:51:50;18.80;57.80
81800;DHT22;71195;52.528;5.704;2023-07-08T04:54:22;18.80;57.90
81800;DHT22;71195;52.528;5.704;2023-07-08T04:56:51;18.90;57.90
81800;DHT22;71195;52.528;5.704;2023-07-08T04:59:23;18.90;57.90
81800;DHT22;71195;52.528;5.704;2023-07-08T05:01:52;18.90;58.00
81800;DHT22;71195;52.528;5.704;2023-07-08T05:04:22;18.90;57.90
81800;DHT22;71195;52.528;5.704;2023-07-08T05:06:52;18.90;57.90
81800;DHT22;71195;52.528;5.704;2023-07-08T05:09:23;19.00;57.90
81800;DHT22;71195;52.528;5.704;2023-07-08T05:11:53;19.00;57.90
81800;DHT22;71195;52.528;5.704;2023-07-08T05:14:22;19.10;57.80
81800;DHT22;71195;52.528;5.704;2023-07-08T05:16:51;19.10;57.70
81800;DHT22;71195;52.528;5.704;2023-07-08T05:19:20;19.10;57.70
81800;DHT22;71195;52.528;5.704;2023-07-08T05:21:50;19.20;57.70
81800;DHT22;71195;52.528;5.704;2023-07-08T05:24:19;19.20;57.80
81800;DHT22;71195;52.528;5.704;2023-07-08T05:26:51;19.20;57.80
81800;DHT22;71195;52.528;5.704;2023-07-08T05:29:20;19.30;57.90
81800;DHT22;71195;52.528;5.704;2023-07-08T05:31:50;19.30;57.80
81800;DHT22;71195;52.528;5.704;2023-07-08T05:34:19;19.40;57.80
81800;DHT22;71195;52.528;5.704;2023-07-08T05:36:48;19.40;57.80
81800;DHT22;71195;52.528;5.704;2023-07-08T05:39:17;19.50;57.80
81800;DHT22;71195;52.528;5.704;2023-07-08T05:41:46;19.50;57.70
81800;DHT22;71195;52.528;5.704;2023-07-08T05:44:18;19.50;57.70
81800;DHT22;71195;52.528;5.704;2023-07-08T05:46:47;19.60;57.80
81800;DHT22;71195;52.528;5.704;2023-07-08T05:49:17;19.70;57.70
81800;DHT22;71195;52.528;5.704;2023-07-08T05:51:46;19.80;57.60
81800;DHT22;71195;52.528;5.704;2023-07-08T05:54:16;19.90;57.60
81800;DHT22;71195;52.528;5.704;2023-07-08T05:56:45;20.00;57.60
81800;DHT22;71195;52.528;5.704;2023-07-08T05:59:14;20.00;57.60
81800;DHT22;71195;52.528;5.704;2023-07-08T06:01:46;20.10;57.50
81800;DHT22;71195;52.528;5.704;2023-07-08T06:04:15;20.20;57.50
81800;DHT22;71195;52.528;5.704;2023-07-08T06:06:44;20.30;57.50
81800;DHT22;71195;52.528;5.704;2023-07-08T06:09:14;20.40;57.50
81800;DHT22;71195;52.528;5.704;2023-07-08T06:11:43;20.50;57.50
81800;DHT22;71195;52.528;5.704;2023-07-08T06:14:12;20.60;57.50
81800;DHT22;71195;52.528;5.704;2023-07-08T06:16:41;20.70;57.40
81800;DHT22;71195;52.528;5.704;2023-07-08T06:19:13;20.80;57.40
81800;DHT22;71195;52.528;5.704;2023-07-08T06:21:43;20.90;57.40
81800;DHT22;71195;52.528;5.704;2023-07-08T06:24:12;21.10;57.40
81800;DHT22;71195;52.528;5.704;2023-07-08T06:26:41;21.20;57.30
81800;DHT22;71195;52.528;5.704;2023-07-08T06:29:11;21.30;57.30
81800;DHT22;71195;52.528;5.704;2023-07-08T06:31:42;21.40;57.30
81800;DHT22;71195;52.528;5.704;2023-07-08T06:34:13;21.50;57.30
81800;DHT22;71195;52.528;5.704;2023-07-08T06:36:43;21.70;57.30
81800;DHT22;71195;52.528;5.704;2023-07-08T06:39:12;21.80;57.20
81800;DHT22;71195;52.528;5.704;2023-07-08T06:41:41;21.90;57.20
81800;DHT22;71195;52.528;5.704;2023-07-08T06:44:10;22.00;57.20
81800;DHT22;71195;52.528;5.704;2023-07-08T06:46:40;22.20;57.10
81800;DHT22;71195;52.528;5.704;2023-07-08T06:49:09;22.40;57.00
81800;DHT22;71195;52.528;5.704;2023-07-08T06:51:41;22.50;57.00
81800;DHT22;71195;52.528;5.704;2023-07-08T06:54:11;22.60;57.00
81800;DHT22;71195;52.528;5.704;2023-07-08T06:56:41;22.80;56.90
81800;DHT22;71195;52.528;5.704;2023-07-08T06:59:10;23.00;56.80
81800;DHT22;71195;52.528;5.704;2023-07-08T07:01:39;23.20;56.80
81800;DHT22;71195;52.528;5.704;2023-07-08T07:04:09;23.40;56.70
81800;DHT22;71195;52.528;5.704;2023-07-08T07:06:40;23.50;56.60
81800;DHT22;71195;52.528;5.704;2023-07-08T07:09:10;23.60;56.50
81800;DHT22;71195;52.528;5.704;2023-07-08T07:11:39;23.80;56.50
81800;DHT22;71195;52.528;5.704;2023-07-08T07:14:08;23.90;56.50
81800;DHT22;71195;52.528;5.704;2023-07-08T07:16:37;24.10;56.40
81800;DHT22;71195;52.528;5.704;2023-07-08T07:19:08;24.20;56.20
81800;DHT22;71195;52.528;5.704;2023-07-08T07:21:37;24.40;56.10
81800;DHT22;71195;52.528;5.704;2023-07-08T07:24:09;24.50;56.00
81800;DHT22;71195;52.528;5.704;2023-07-08T07:26:38;24.70;55.80
81800;DHT22;71195;52.528;5.704;2023-07-08T07:29:07;24.90;55.70
81800;DHT22;71195;52.528;5.704;2023-07-08T07:31:36;25.00;55.70
81800;DHT22;71195;52.528;5.704;2023-07-08T07:34:06;25.10;55.50
81800;DHT22;71195;52.528;5.704;2023-07-08T07:36:35;25.30;55.40
81800;DHT22;71195;52.528;5.704;2023-07-08T07:39:04;25.50;55.20
81800;DHT22;71195;52.528;5.704;2023-07-08T07:41:36;25.60;55.10
81800;DHT22;71195;52.528;5.704;2023-07-08T07:44:05;25.80;54.90
81800;DHT22;71195;52.528;5.704;2023-07-08T07:46:35;25.80;54.70
81800;DHT22;71195;52.528;5.704;2023-07-08T07:49:04;26.00;54.60
81800;DHT22;71195;52.528;5.704;2023-07-08T07:51:33;26.10;54.40
81800;DHT22;71195;52.528;5.704;2023-07-08T07:54:02;26.20;54.30
81800;DHT22;71195;52.528;5.704;2023-07-08T07:56:32;26.40;54.10
81800;DHT22;71195;52.528;5.704;2023-07-08T07:59:04;26.50;54.00
81800;DHT22;71195;52.528;5.704;2023-07-08T08:01:33;26.60;53.70
81800;DHT22;71195;52.528;5.704;2023-07-08T08:04:03;26.80;53.70
81800;DHT22;71195;52.528;5.704;2023-07-08T08:06:32;26.90;53.40
81800;DHT22;71195;52.528;5.704;2023-07-08T08:09:01;27.10;53.30
81800;DHT22;71195;52.528;5.704;2023-07-08T08:11:31;27.30;53.00
81800;DHT22;71195;52.528;5.704;2023-07-08T08:14:03;27.40;52.80
81800;DHT22;71195;52.528;5.704;2023-07-08T08:16:32;27.50;52.60
81800;DHT22;71195;52.528;5.704;2023-07-08T08:19:02;27.70;52.50
81800;DHT22;71195;52.528;5.704;2023-07-08T08:21:31;27.70;52.40
81800;DHT22;71195;52.528;5.704;2023-07-08T08:24:00;27.80;52.30
81800;DHT22;71195;52.528;5.704;2023-07-08T08:26:29;28.00;52.10
81800;DHT22;71195;52.528;5.704;2023-07-08T08:28:58;28.10;51.90
81800;DHT22;71195;52.528;5.704;2023-07-08T08:31:30;28.20;51.80
81800;DHT22;71195;52.528;5.704;2023-07-08T08:34:00;28.30;51.70
81800;DHT22;71195;52.528;5.704;2023-07-08T08:36:29;28.50;51.50
81800;DHT22;71195;52.528;5.704;2023-07-08T08:38:58;28.60;51.50
81800;DHT22;71195;52.528;5.704;2023-07-08T08:41:31;28.70;51.30
81800;DHT22;71195;52.528;5.704;2023-07-08T08:44:01;28.90;51.30
81800;DHT22;71195;52.528;5.704;2023-07-08T08:46:39;28.90;51.20
81800;DHT22;71195;52.528;5.704;2023-07-08T08:49:18;29.10;51.00
81800;DHT22;71195;52.528;5.704;2023-07-08T08:51:51;29.30;50.90
81800;DHT22;71195;52.528;5.704;2023-07-08T08:54:20;29.40;50.80
81800;DHT22;71195;52.528;5.704;2023-07-08T08:57:00;29.50;50.70
81800;DHT22;71195;52.528;5.704;2023-07-08T08:59:37;29.50;50.60
81800;DHT22;71195;52.528;5.704;2023-07-08T09:02:22;29.70;50.40
81800;DHT22;71195;52.528;5.704;2023-07-08T09:04:52;29.80;50.20
81800;DHT22;71195;52.528;5.704;2023-07-08T09:07:22;30.00;50.20
81800;DHT22;71195;52.528;5.704;2023-07-08T09:09:57;30.10;50.10
81800;DHT22;71195;52.528;5.704;2023-07-08T09:12:29;30.20;50.00
81800;DHT22;71195;52.528;5.704;2023-07-08T09:14:59;30.40;49.80
81800;DHT22;71195;52.528;5.704;2023-07-08T09:17:32;30.50;49.70
81800;DHT22;71195;52.528;5.704;2023-07-08T09:20:07;30.70;49.50
81800;DHT22;71195;52.528;5.704;2023-07-08T09:22:44;30.70;49.30
81800;DHT22;71195;52.528;5.704;2023-07-08T09:25:24;30.90;49.30
81800;DHT22;71195;52.528;5.704;2023-07-08T09:27:53;31.10;49.20
81800;DHT22;71195;52.528;5.704;2023-07-08T09:30:23;31.30;49.10
81800;DHT22;71195;52.528;5.704;2023-07-08T09:32:58;31.40;48.90
81800;DHT22;71195;52.528;5.704;2023-07-08T09:35:40;31.60;48.70
81800;DHT22;71195;52.528;5.704;2023-07-08T09:38:14;31.70;48.60
81800;DHT22;71195;52.528;5.704;2023-07-08T09:40:47;31.90;48.50
81800;DHT22;71195;52.528;5.704;2023-07-08T09:43:24;32.00;48.30
81800;DHT22;71195;52.528;5.704;2023-07-08T09:45:57;32.20;48.00
81800;DHT22;71195;52.528;5.704;2023-07-08T09:48:33;32.20;48.00
81800;DHT22;71195;52.528;5.704;2023-07-08T09:51:04;32.40;47.90
81800;DHT22;71195;52.528;5.704;2023-07-08T09:53:34;32.50;47.80
81800;DHT22;71195;52.528;5.704;2023-07-08T09:56:04;32.60;47.70
81800;DHT22;71195;52.528;5.704;2023-07-08T09:58:36;32.70;47.50
81800;DHT22;71195;52.528;5.704;2023-07-08T10:01:13;32.80;47.50
81800;DHT22;71195;52.528;5.704;2023-07-08T10:03:47;33.00;47.30
81800;DHT22;71195;52.528;5.704;2023-07-08T10:06:18;33.10;47.20
81800;DHT22;71195;52.528;5.704;2023-07-08T10:08:49;33.20;47.10
81800;DHT22;71195;52.528;5.704;2023-07-08T10:11:24;33.30;47.10
81800;DHT22;71195;52.528;5.704;2023-07-08T10:13:56;33.50;47.00
81800;DHT22;71195;52.528;5.704;2023-07-08T10:16:29;33.60;46.80
81800;DHT22;71195;52.528;5.704;2023-07-08T10:19:09;33.70;46.60
81800;DHT22;71195;52.528;5.704;2023-07-08T10:21:47;33.90;46.40
81800;DHT22;71195;52.528;5.704;2023-07-08T10:24:26;34.00;46.20
81800;DHT22;71195;52.528;5.704;2023-07-08T10:27:15;34.20;46.10
81800;DHT22;71195;52.528;5.704;2023-07-08T10:29:54;34.30;46.00
81800;DHT22;71195;52.528;5.704;2023-07-08T10:32:36;34.40;45.70
81800;DHT22;71195;52.528;5.704;2023-07-08T10:35:14;34.50;45.60
81800;DHT22;71195;52.528;5.704;2023-07-08T10:38:01;34.60;45.50
81800;DHT22;71195;52.528;5.704;2023-07-08T10:40:42;34.80;45.40
81800;DHT22;71195;52.528;5.704;2023-07-08T10:43:30;35.00;45.40
81800;DHT22;71195;52.528;5.704;2023-07-08T10:46:14;35.10;45.20
81800;DHT22;71195;52.528;5.704;2023-07-08T10:51:55;35.30;45.00
81800;DHT22;71195;52.528;5.704;2023-07-08T10:54:48;35.40;45.00
81800;DHT22;71195;52.528;5.704;2023-07-08T10:57:27;35.50;44.90
81800;DHT22;71195;52.528;5.704;2023-07-08T11:00:07;35.60;45.00
81800;DHT22;71195;52.528;5.704;2023-07-08T11:03:02;35.80;45.00
81800;DHT22;71195;52.528;5.704;2023-07-08T11:05:37;35.90;44.60
81800;DHT22;71195;52.528;5.704;2023-07-08T11:08:16;36.00;44.60
81800;DHT22;71195;52.528;5.704;2023-07-08T11:10:51;36.10;44.40
81800;DHT22;71195;52.528;5.704;2023-07-08T11:13:24;36.30;44.40
81800;DHT22;71195;52.528;5.704;2023-07-08T11:16:00;36.40;44.30
81800;DHT22;71195;52.528;5.704;2023-07-08T11:18:37;36.50;44.20
81800;DHT22;71195;52.528;5.704;2023-07-08T11:21:11;36.70;44.10
81800;DHT22;71195;52.528;5.704;2023-07-08T11:23:50;36.70;44.00
81800;DHT22;71195;52.528;5.704;2023-07-08T11:26:25;36.90;43.90
81800;DHT22;71195;52.528;5.704;2023-07-08T11:28:58;37.00;43.80
81800;DHT22;71195;52.528;5.704;2023-07-08T11:31:28;37.00;43.90
81800;DHT22;71195;52.528;5.704;2023-07-08T11:34:00;37.20;43.80
81800;DHT22;71195;52.528;5.704;2023-07-08T11:36:31;37.30;43.80
81800;DHT22;71195;52.528;5.704;2023-07-08T11:39:28;37.40;43.70
81800;DHT22;71195;52.528;5.704;2023-07-08T11:42:17;37.50;43.40
81800;DHT22;71195;52.528;5.704;2023-07-08T11:44:50;37.50;43.20
81800;DHT22;71195;52.528;5.704;2023-07-08T11:47:25;37.70;43.20
81800;DHT22;71195;52.528;5.704;2023-07-08T11:49:55;37.70;43.20
81800;DHT22;71195;52.528;5.704;2023-07-08T11:52:25;37.80;43.10
81800;DHT22;71195;52.528;5.704;2023-07-08T11:55:21;38.00;43.00
81800;DHT22;71195;52.528;5.704;2023-07-08T11:57:55;38.10;42.80
81800;DHT22;71195;52.528;5.704;2023-07-08T12:00:26;38.20;42.70
81800;DHT22;71195;52.528;5.704;2023-07-08T12:03:04;38.30;42.50
81800;DHT22;71195;52.528;5.704;2023-07-08T12:05:35;38.50;42.30
81800;DHT22;71195;52.528;5.704;2023-07-08T12:08:13;38.50;42.30
81800;DHT22;71195;52.528;5.704;2023-07-08T12:10:50;38.60;42.10
81800;DHT22;71195;52.528;5.704;2023-07-08T12:13:22;38.70;42.00
81800;DHT22;71195;52.528;5.704;2023-07-08T12:15:53;38.70;42.10
81800;DHT22;71195;52.528;5.704;2023-07-08T12:18:25;38.70;41.90
81800;DHT22;71195;52.528;5.704;2023-07-08T12:20:58;38.90;41.80
81800;DHT22;71195;52.528;5.704;2023-07-08T12:23:28;38.90;41.70
81800;DHT22;71195;52.528;5.704;2023-07-08T12:26:00;38.90;41.70
81800;DHT22;71195;52.528;5.704;2023-07-08T12:28:31;39.00;41.50
81800;DHT22;71195;52.528;5.704;2023-07-08T12:31:00;39.00;41.40
81800;DHT22;71195;52.528;5.704;2023-07-08T12:33:33;39.10;41.30
81800;DHT22;71195;52.528;5.704;2023-07-08T12:36:03;39.20;41.20
81800;DHT22;71195;52.528;5.704;2023-07-08T12:38:37;39.30;41.20
81800;DHT22;71195;52.528;5.704;2023-07-08T12:41:12;39.40;41.10
81800;DHT22;71195;52.528;5.704;2023-07-08T12:43:42;39.40;41.20
81800;DHT22;71195;52.528;5.704;2023-07-08T12:46:12;39.60;41.20
81800;DHT22;71195;52.528;5.704;2023-07-08T12:48:42;39.70;41.10
81800;DHT22;71195;52.528;5.704;2023-07-08T12:51:15;39.70;41.00
81800;DHT22;71195;52.528;5.704;2023-07-08T12:53:47;39.80;41.00
81800;DHT22;71195;52.528;5.704;2023-07-08T12:56:22;39.80;41.00
81800;DHT22;71195;52.528;5.704;2023-07-08T12:58:54;39.90;40.90
81800;DHT22;71195;52.528;5.704;2023-07-08T13:01:29;39.90;40.90
81800;DHT22;71195;52.528;5.704;2023-07-08T13:04:01;40.00;40.90
81800;DHT22;71195;52.528;5.704;2023-07-08T13:06:32;40.00;40.80
81800;DHT22;71195;52.528;5.704;2023-07-08T13:09:22;40.00;40.60
81800;DHT22;71195;52.528;5.704;2023-07-08T13:11:56;40.10;40.60
81800;DHT22;71195;52.528;5.704;2023-07-08T13:14:26;40.20;40.50
81800;DHT22;71195;52.528;5.704;2023-07-08T13:16:56;40.30;40.50
81800;DHT22;71195;52.528;5.704;2023-07-08T13:19:26;40.40;40.30
81800;DHT22;71195;52.528;5.704;2023-07-08T13:21:55;40.40;40.20
81800;DHT22;71195;52.528;5.704;2023-07-08T13:24:30;40.50;40.30
81800;DHT22;71195;52.528;5.704;2023-07-08T13:27:05;40.50;40.10
81800;DHT22;71195;52.528;5.704;2023-07-08T13:29:37;40.60;40.10
81800;DHT22;71195;52.528;5.704;2023-07-08T13:32:09;40.50;40.20
81800;DHT22;71195;52.528;5.704;2023-07-08T13:34:39;40.50;40.30
81800;DHT22;71195;52.528;5.704;2023-07-08T13:37:11;40.50;40.10
81800;DHT22;71195;52.528;5.704;2023-07-08T13:39:44;40.60;40.00
81800;DHT22;71195;52.528;5.704;2023-07-08T13:42:17;40.60;39.90
81800;DHT22;71195;52.528;5.704;2023-07-08T13:44:47;40.60;39.90
81800;DHT22;71195;52.528;5.704;2023-07-08T13:47:19;40.60;39.90
81800;DHT22;71195;52.528;5.704;2023-07-08T13:49:54;40.60;40.00
81800;DHT22;71195;52.528;5.704;2023-07-08T13:52:25;40.60;39.90
81800;DHT22;71195;52.528;5.704;2023-07-08T13:54:58;40.70;39.70
81800;DHT22;71195;52.528;5.704;2023-07-08T13:57:34;40.80;39.40
81800;DHT22;71195;52.528;5.704;2023-07-08T14:00:05;40.80;39.30
81800;DHT22;71195;52.528;5.704;2023-07-08T14:02:39;40.90;39.20
81800;DHT22;71195;52.528;5.704;2023-07-08T14:05:12;40.90;39.00
81800;DHT22;71195;52.528;5.704;2023-07-08T14:07:46;41.00;39.00
81800;DHT22;71195;52.528;5.704;2023-07-08T14:10:16;41.00;38.90
81800;DHT22;71195;52.528;5.704;2023-07-08T14:12:48;41.00;38.80
81800;DHT22;71195;52.528;5.704;2023-07-08T14:15:17;41.00;38.60
81800;DHT22;71195;52.528;5.704;2023-07-08T14:17:46;41.00;38.50
81800;DHT22;71195;52.528;5.704;2023-07-08T14:20:17;41.00;38.40
81800;DHT22;71195;52.528;5.704;2023-07-08T14:22:46;41.00;38.20
81800;DHT22;71195;52.528;5.704;2023-07-08T14:25:17;41.00;38.10
81800;DHT22;71195;52.528;5.704;2023-07-08T14:27:49;41.00;38.00
81800;DHT22;71195;52.528;5.704;2023-07-08T14:30:19;41.00;37.90
81800;DHT22;71195;52.528;5.704;2023-07-08T14:32:48;41.00;37.90
81800;DHT22;71195;52.528;5.704;2023-07-08T14:35:20;41.00;37.80
81800;DHT22;71195;52.528;5.704;2023-07-08T14:37:51;41.00;37.70
81800;DHT22;71195;52.528;5.704;2023-07-08T14:40:26;41.00;37.60
81800;DHT22;71195;52.528;5.704;2023-07-08T14:43:01;41.00;37.60
81800;DHT22;71195;52.528;5.704;2023-07-08T14:45:37;41.00;37.60
81800;DHT22;71195;52.528;5.704;2023-07-08T14:48:08;41.00;37.60
81800;DHT22;71195;52.528;5.704;2023-07-08T14:50:38;41.00;37.60
81800;DHT22;71195;52.528;5.704;2023-07-08T14:53:08;41.00;37.60
81800;DHT22;71195;52.528;5.704;2023-07-08T14:55:37;41.00;37.60
81800;DHT22;71195;52.528;5.704;2023-07-08T14:58:10;41.00;37.70
81800;DHT22;71195;52.528;5.704;2023-07-08T15:00:45;41.00;37.70
81800;DHT22;71195;52.528;5.704;2023-07-08T15:03:14;41.00;37.60
81800;DHT22;71195;52.528;5.704;2023-07-08T15:05:44;41.00;37.70
81800;DHT22;71195;52.528;5.704;2023-07-08T15:08:14;40.90;37.60
81800;DHT22;71195;52.528;5.704;2023-07-08T15:10:47;40.90;37.50
81800;DHT22;71195;52.528;5.704;2023-07-08T15:13:21;40.90;37.60
81800;DHT22;71195;52.528;5.704;2023-07-08T15:15:54;40.80;37.50
81800;DHT22;71195;52.528;5.704;2023-07-08T15:18:23;40.90;37.60
81800;DHT22;71195;52.528;5.704;2023-07-08T15:20:52;40.90;37.50
81800;DHT22;71195;52.528;5.704;2023-07-08T15:23:21;40.80;37.40
81800;DHT22;71195;52.528;5.704;2023-07-08T15:25:51;40.60;37.40
81800;DHT22;71195;52.528;5.704;2023-07-08T15:28:37;40.40;37.50
81800;DHT22;71195;52.528;5.704;2023-07-08T15:31:14;40.40;37.30
81800;DHT22;71195;52.528;5.704;2023-07-08T15:33:43;40.30;37.50
81800;DHT22;71195;52.528;5.704;2023-07-08T15:36:13;40.10;37.60
81800;DHT22;71195;52.528;5.704;2023-07-08T15:38:43;40.00;37.70
81800;DHT22;71195;52.528;5.704;2023-07-08T15:41:18;40.00;37.80
81800;DHT22;71195;52.528;5.704;2023-07-08T15:43:53;39.90;37.70
81800;DHT22;71195;52.528;5.704;2023-07-08T15:46:27;39.90;37.70
81800;DHT22;71195;52.528;5.704;2023-07-08T15:48:59;39.80;37.80
81800;DHT22;71195;52.528;5.704;2023-07-08T15:51:29;39.70;37.90
81800;DHT22;71195;52.528;5.704;2023-07-08T15:53:59;39.60;37.80
81800;DHT22;71195;52.528;5.704;2023-07-08T15:56:28;39.50;37.80
81800;DHT22;71195;52.528;5.704;2023-07-08T15:59:00;39.40;37.90
81800;DHT22;71195;52.528;5.704;2023-07-08T16:01:29;39.40;38.00
81800;DHT22;71195;52.528;5.704;2023-07-08T16:03:58;39.30;38.00